Time;durP1;ratioP1;P1;durP2;ratioP2;P2;SDS_P1;SDS_P2;PMS_P1;PMS_P2;Temp;Humidity;BMP_temperature;BMP_pressure;BME280_temperature;BME280_humidity;BME280_pressure;Samples;Min_cycle;Max_cycle;Signal;HPM_P1;HPM_P2
2023/04/14 00:01:51;;;;;;;10.20;8.30;;;15.20;99.90;;;;;;5054233;28;20194;-81
2023/04/14 00:04:18;;;;;;;9.93;8.43;;;15.20;99.90;;;;;;5037951;28;20708;-84
2023/04/14 00:06:44;;;;;;;9.60;8.20;;;15.20;99.90;;;;;;5055642;28;20236;-81
2023/04/14 00:09:09;;;;;;;9.37;7.20;;;15.20;99.90;;;;;;5056314;28;20450;-81
2023/04/14 00:11:35;;;;;;;9.93;8.00;;;15.20;99.90;;;;;;5037610;28;20197;-82
2023/04/14 00:14:01;;;;;;;9.83;8.23;;;15.20;99.90;;;;;;5055964;28;20174;-83
2023/04/14 00:16:29;;;;;;;10.53;8.00;;;15.20;99.90;;;;;;5055387;28;20169;-81
2023/04/14 00:18:55;;;;;;;12.10;7.90;;;15.20;99.90;;;;;;5055735;28;20419;-82
2023/04/14 00:21:20;;;;;;;8.40;7.60;;;15.20;99.90;;;;;;5055264;28;20498;-81
2023/04/14 00:23:46;;;;;;;10.67;7.80;;;15.20;99.90;;;;;;5037541;28;20597;-82
2023/04/14 00:26:11;;;;;;;8.90;7.50;;;15.10;99.90;;;;;;5037518;28;20212;-83
2023/04/14 00:28:37;;;;;;;9.00;7.40;;;15.10;99.90;;;;;;5054004;28;20188;-81
2023/04/14 00:31:03;;;;;;;10.40;8.40;;;15.10;99.90;;;;;;5055105;28;20247;-81
2023/04/14 00:33:28;;;;;;;12.00;8.07;;;15.10;99.90;;;;;;5053640;28;20204;-82
2023/04/14 00:35:54;;;;;;;10.37;7.97;;;15.10;99.90;;;;;;5037224;28;20640;-81
2023/04/14 00:38:19;;;;;;;8.77;7.80;;;15.00;99.90;;;;;;5055228;28;20202;-81
2023/04/14 00:40:45;;;;;;;8.67;7.20;;;15.00;99.90;;;;;;5036869;28;20625;-82
2023/04/14 00:43:11;;;;;;;9.63;8.17;;;15.00;99.90;;;;;;5055217;28;20201;-83
2023/04/14 00:45:43;;;;;;;9.90;7.83;;;14.90;99.90;;;;;;5054837;28;20201;-82
2023/04/14 00:48:09;;;;;;;10.87;7.23;;;14.90;99.90;;;;;;5037217;28;20244;-82
2023/04/14 00:50:35;;;;;;;9.70;7.73;;;15.00;99.90;;;;;;5036863;28;20427;-82
2023/04/14 00:53:01;;;;;;;10.33;8.13;;;14.90;99.90;;;;;;5054769;28;20431;-81
2023/04/14 00:55:28;;;;;;;8.93;7.60;;;14.90;99.90;;;;;;5054590;28;20561;-81
2023/04/14 00:57:54;;;;;;;9.23;7.83;;;14.90;99.90;;;;;;5036801;28;20264;-81
2023/04/14 01:00:20;;;;;;;11.17;8.53;;;14.80;99.90;;;;;;5053336;28;20418;-82
2023/04/14 01:02:46;;;;;;;9.23;8.33;;;14.80;99.90;;;;;;5036550;28;20484;-82
2023/04/14 01:05:11;;;;;;;9.53;7.73;;;14.70;99.90;;;;;;5054489;28;20458;-82
2023/04/14 01:07:37;;;;;;;10.97;8.47;;;14.70;99.90;;;;;;5054625;28;20284;-82
2023/04/14 01:10:04;;;;;;;12.80;9.43;;;14.70;99.90;;;;;;5036529;28;20201;-83
2023/04/14 01:12:45;;;;;;;11.57;7.73;;;14.60;99.90;;;;;;5036479;28;20802;-81
2023/04/14 01:15:17;;;;;;;9.30;7.73;;;14.50;99.90;;;;;;5036420;28;20446;-81
2023/04/14 01:18:18;;;;;;;9.60;7.80;;;14.60;99.90;;;;;;5036374;28;20454;-82
2023/04/14 01:20:51;;;;;;;7.80;6.53;;;14.60;99.90;;;;;;5054228;28;20764;-82
2023/04/14 01:23:26;;;;;;;7.00;5.40;;;14.60;99.90;;;;;;5036436;28;20446;-81
2023/04/14 01:26:16;;;;;;;6.93;6.00;;;14.60;99.90;;;;;;5036246;28;20990;-82
2023/04/14 01:29:08;;;;;;;6.00;5.40;;;14.60;99.90;;;;;;5053957;28;20427;-81
2023/04/14 01:31:43;;;;;;;6.30;5.20;;;14.60;99.90;;;;;;5054131;28;20418;-82
2023/04/14 01:34:25;;;;;;;8.40;5.87;;;14.60;99.90;;;;;;5036091;28;20430;-81
2023/04/14 01:37:01;;;;;;;4.80;4.40;;;14.70;99.90;;;;;;5036006;28;20443;-82
2023/04/14 01:39:38;;;;;;;5.50;4.87;;;14.70;99.90;;;;;;5054147;28;20762;-81
2023/04/14 01:42:07;;;;;;;5.03;4.53;;;14.70;99.90;;;;;;5053747;28;20917;-82
2023/04/14 01:44:35;;;;;;;7.73;4.90;;;14.80;99.90;;;;;;5053694;28;20470;-81
2023/04/14 01:47:04;;;;;;;5.80;4.80;;;14.80;99.90;;;;;;5035766;28;20430;-82
2023/04/14 01:49:32;;;;;;;5.07;4.13;;;14.80;99.90;;;;;;5035875;28;20426;-81
2023/04/14 01:52:00;;;;;;;6.20;4.67;;;14.90;99.90;;;;;;5053732;28;20801;-83
2023/04/14 01:54:26;;;;;;;4.83;4.13;;;15.00;99.90;;;;;;5053775;28;20457;-82
2023/04/14 01:56:54;;;;;;;4.53;3.87;;;15.00;99.90;;;;;;5053538;28;20530;-82
2023/04/14 01:59:21;;;;;;;5.13;4.20;;;15.10;99.90;;;;;;5036054;28;20435;-81
2023/04/14 02:01:50;;;;;;;6.13;4.93;;;15.10;99.90;;;;;;5035593;28;20447;-82
2023/04/14 02:04:20;;;;;;;5.97;4.70;;;15.10;99.90;;;;;;5054120;28;20468;-82
2023/04/14 02:06:48;;;;;;;6.17;4.90;;;15.10;99.90;;;;;;5035329;28;20434;-83
2023/04/14 02:09:15;;;;;;;5.80;4.80;;;15.00;99.90;;;;;;5035748;28;20457;-82
2023/04/14 02:11:42;;;;;;;5.37;4.30;;;14.90;99.90;;;;;;5053478;28;20442;-83
2023/04/14 02:14:09;;;;;;;6.23;4.50;;;14.90;99.90;;;;;;5035828;28;20418;-81
2023/04/14 02:16:37;;;;;;;6.00;4.90;;;14.80;99.90;;;;;;5035542;28;20442;-81
2023/04/14 02:19:04;;;;;;;6.00;4.70;;;14.90;99.90;;;;;;5035860;28;20422;-81
2023/04/14 02:21:32;;;;;;;6.03;4.80;;;14.80;99.90;;;;;;5035424;28;20435;-82
2023/04/14 02:23:57;;;;;;;4.90;4.23;;;14.70;99.90;;;;;;5035395;28;20458;-81
2023/04/14 02:26:26;;;;;;;7.40;5.00;;;14.80;99.90;;;;;;5053475;28;20549;-84
2023/04/14 02:29:01;;;;;;;5.80;4.13;;;14.70;99.90;;;;;;5035761;28;20661;-81
2023/04/14 02:31:29;;;;;;;4.57;4.13;;;14.70;99.90;;;;;;5035510;28;20405;-84
2023/04/14 02:33:58;;;;;;;8.03;4.87;;;14.70;99.90;;;;;;5035536;28;20931;-83
2023/04/14 02:36:49;;;;;;;6.13;4.97;;;14.70;99.90;;;;;;5053268;28;20772;-82
2023/04/14 02:39:19;;;;;;;7.50;4.90;;;14.80;99.90;;;;;;5042342;28;20453;-82
2023/04/14 02:41:47;;;;;;;4.97;4.27;;;14.80;99.90;;;;;;5053302;28;20524;-83
2023/04/14 02:44:20;;;;;;;5.10;4.40;;;14.90;99.90;;;;;;5035632;28;21069;-83
2023/04/14 02:46:54;;;;;;;5.07;4.50;;;14.80;99.90;;;;;;5053189;28;20506;-81
2023/04/14 02:49:21;;;;;;;6.00;4.00;;;14.80;99.90;;;;;;5053811;28;20418;-81
2023/04/14 02:51:49;;;;;;;9.83;4.70;;;14.80;99.90;;;;;;5035186;28;20439;-81
2023/04/14 02:54:17;;;;;;;4.60;3.80;;;14.80;99.90;;;;;;5035673;28;21014;-82
2023/04/14 02:56:43;;;;;;;4.87;4.40;;;14.80;99.90;;;;;;5053069;28;20426;-81
2023/04/14 02:59:10;;;;;;;6.90;4.40;;;14.80;99.90;;;;;;5053201;28;20430;-81
2023/04/14 03:01:37;;;;;;;10.73;4.73;;;14.80;99.90;;;;;;5035191;28;20426;-81
2023/04/14 03:04:03;;;;;;;8.10;4.90;;;14.80;99.90;;;;;;5053489;28;20470;-82
2023/04/14 03:06:30;;;;;;;8.33;4.83;;;14.80;99.90;;;;;;5035189;28;20489;-81
2023/04/14 03:08:58;;;;;;;4.67;4.13;;;14.90;99.90;;;;;;5035364;28;20526;-82
2023/04/14 03:11:25;;;;;;;5.30;4.80;;;14.80;99.90;;;;;;5052972;28;20409;-83
2023/04/14 03:13:53;;;;;;;5.40;4.57;;;14.80;99.90;;;;;;5035342;28;20457;-81
2023/04/14 03:16:20;;;;;;;6.63;4.33;;;14.70;99.90;;;;;;5052917;28;20950;-82
2023/04/14 03:18:48;;;;;;;5.90;4.53;;;14.70;99.90;;;;;;5053309;28;20879;-82
2023/04/14 03:21:17;;;;;;;5.03;4.20;;;14.70;99.90;;;;;;5056314;28;20484;-83
2023/04/14 03:23:45;;;;;;;4.80;4.30;;;14.70;99.90;;;;;;5056423;28;20529;-83
2023/04/14 03:26:16;;;;;;;4.70;4.30;;;14.60;99.90;;;;;;5038562;28;20807;-81
2023/04/14 03:28:42;;;;;;;6.07;4.60;;;14.60;99.90;;;;;;5056716;28;20418;-82
2023/04/14 03:31:10;;;;;;;5.13;4.40;;;14.50;99.90;;;;;;5056354;28;20446;-81
2023/04/14 03:33:37;;;;;;;6.53;4.63;;;14.50;99.90;;;;;;5056559;28;20779;-82
2023/04/14 03:36:04;;;;;;;6.33;4.60;;;14.50;99.90;;;;;;5038256;28;20509;-80
2023/04/14 03:38:32;;;;;;;5.97;4.90;;;14.50;99.90;;;;;;5056105;28;20856;-81
2023/04/14 03:41:02;;;;;;;6.93;4.77;;;14.50;99.90;;;;;;5038277;28;20463;-82
2023/04/14 03:43:30;;;;;;;6.80;4.97;;;14.50;99.90;;;;;;5038445;28;20451;-82
2023/04/14 03:45:56;;;;;;;6.03;4.00;;;14.50;99.90;;;;;;5055943;28;20910;-83
2023/04/14 03:48:28;;;;;;;4.17;3.50;;;14.50;99.90;;;;;;5056354;28;20445;-82
2023/04/14 03:50:57;;;;;;;7.73;4.67;;;14.50;99.90;;;;;;5055947;28;20438;-80
2023/04/14 03:53:24;;;;;;;5.27;4.10;;;14.50;99.90;;;;;;5037930;28;20446;-84
2023/04/14 03:55:51;;;;;;;4.80;4.20;;;14.50;99.90;;;;;;5037948;28;20509;-81
2023/04/14 03:58:19;;;;;;;4.80;4.30;;;14.50;99.90;;;;;;5055266;28;20474;-81
2023/04/14 04:00:45;;;;;;;5.10;4.13;;;14.60;99.90;;;;;;5037706;28;20415;-82
2023/04/14 04:03:13;;;;;;;4.00;3.60;;;14.60;99.90;;;;;;5037979;28;20449;-81
2023/04/14 04:05:40;;;;;;;6.03;4.17;;;14.60;99.90;;;;;;5031850;28;20979;-81
2023/04/14 04:08:08;;;;;;;5.83;3.83;;;14.60;99.90;;;;;;5017741;28;20982;-81
2023/04/14 04:10:34;;;;;;;4.77;3.53;;;14.60;99.90;;;;;;5017005;28;20983;-81
2023/04/14 04:13:01;;;;;;;5.93;3.70;;;14.60;99.90;;;;;;5016212;28;21043;-81
2023/04/14 04:15:29;;;;;;;5.00;4.20;;;14.60;99.90;;;;;;5048562;28;20515;-82
2023/04/14 04:17:57;;;;;;;6.10;4.10;;;14.50;99.90;;;;;;5034006;28;20824;-81
2023/04/14 04:20:24;;;;;;;4.40;3.80;;;14.60;99.90;;;;;;5035318;28;20400;-81
2023/04/14 04:22:51;;;;;;;4.90;4.07;;;14.60;99.90;;;;;;5025253;28;20454;-81
2023/04/14 04:25:18;;;;;;;5.47;3.70;;;14.60;99.90;;;;;;5051264;28;20450;-81
2023/04/14 04:27:44;;;;;;;8.17;3.93;;;14.60;99.90;;;;;;5054879;28;20451;-83
2023/04/14 04:30:11;;;;;;;4.50;4.10;;;14.60;99.90;;;;;;5054368;28;20403;-81
2023/04/14 04:32:38;;;;;;;6.80;4.10;;;14.50;99.90;;;;;;5035649;28;21015;-81
2023/04/14 04:35:07;;;;;;;5.03;4.13;;;14.60;99.90;;;;;;5052996;28;20875;-81
2023/04/14 04:37:36;;;;;;;4.03;3.63;;;14.50;99.90;;;;;;5034921;28;21024;-83
2023/04/14 04:40:02;;;;;;;4.73;4.23;;;14.40;99.90;;;;;;5052745;28;20446;-80
2023/04/14 04:42:28;;;;;;;4.30;3.90;;;14.40;99.90;;;;;;5052838;28;20526;-84
2023/04/14 04:44:55;;;;;;;3.40;3.10;;;14.30;99.90;;;;;;5052766;28;20546;-81
2023/04/14 04:47:20;;;;;;;5.10;4.60;;;14.20;99.90;;;;;;5034685;28;20454;-82
2023/04/14 04:49:46;;;;;;;5.63;4.10;;;13.90;99.90;;;;;;5034787;28;20828;-81
2023/04/14 04:52:12;;;;;;;7.07;4.77;;;13.70;99.90;;;;;;5053946;28;20190;-81
2023/04/14 04:54:37;;;;;;;5.33;4.53;;;13.70;99.90;;;;;;5054809;28;20216;-81
2023/04/14 04:57:03;;;;;;;6.97;6.00;;;13.60;99.90;;;;;;5054520;28;20244;-81
2023/04/14 04:59:29;;;;;;;7.07;5.50;;;13.50;99.90;;;;;;5036769;28;20221;-81
2023/04/14 05:01:55;;;;;;;10.77;5.30;;;13.50;99.90;;;;;;5036603;28;20446;-83
2023/04/14 05:04:20;;;;;;;7.33;5.37;;;13.70;99.90;;;;;;5036750;28;20221;-82
2023/04/14 05:06:46;;;;;;;7.20;5.20;;;13.70;99.90;;;;;;5054360;28;20431;-81
2023/04/14 05:09:12;;;;;;;5.70;4.60;;;13.70;99.90;;;;;;5034994;28;20190;-82
2023/04/14 05:11:37;;;;;;;6.83;5.23;;;13.70;99.90;;;;;;5052541;28;20197;-81
2023/04/14 05:14:03;;;;;;;7.33;5.13;;;13.70;99.90;;;;;;5052737;28;20666;-83
2023/04/14 05:16:30;;;;;;;5.83;5.23;;;13.80;99.90;;;;;;5033828;28;20189;-82
2023/04/14 05:18:56;;;;;;;6.83;5.17;;;14.00;99.90;;;;;;5052623;28;20423;-81
2023/04/14 05:21:21;;;;;;;6.07;5.10;;;14.10;99.90;;;;;;5052631;28;20907;-83
2023/04/14 05:23:48;;;;;;;10.23;4.83;;;14.10;99.90;;;;;;5052913;28;20503;-81
2023/04/14 05:26:14;;;;;;;8.03;5.23;;;14.10;99.90;;;;;;5033957;28;20182;-81
2023/04/14 05:28:40;;;;;;;6.77;5.53;;;14.20;99.90;;;;;;5033712;28;20923;-82
2023/04/14 05:31:06;;;;;;;6.00;4.80;;;14.20;99.90;;;;;;5032981;28;20830;-82
2023/04/14 05:33:33;;;;;;;7.80;5.00;;;14.30;99.90;;;;;;5052412;28;20435;-81
2023/04/14 05:35:59;;;;;;;7.20;5.67;;;14.40;99.90;;;;;;5052621;28;20895;-82
2023/04/14 05:38:25;;;;;;;6.33;4.87;;;14.40;99.90;;;;;;5034571;28;20447;-81
2023/04/14 05:40:52;;;;;;;9.07;5.17;;;14.50;99.90;;;;;;5052751;28;20529;-83
2023/04/14 05:43:17;;;;;;;10.20;7.37;;;14.50;99.90;;;;;;5051633;28;20496;-82
2023/04/14 05:45:45;;;;;;;92.33;53.77;;;14.50;99.90;;;;;;5033899;28;20466;-81
2023/04/14 05:48:12;;;;;;;121.47;87.57;;;14.50;99.90;;;;;;5052824;28;20214;-82
2023/04/14 05:50:38;;;;;;;53.17;41.97;;;14.50;99.90;;;;;;5050852;28;20399;-80
2023/04/14 05:53:04;;;;;;;13.30;9.30;;;14.50;99.90;;;;;;5034772;28;20465;-81
2023/04/14 05:55:31;;;;;;;10.93;6.37;;;14.50;99.90;;;;;;5035733;28;20247;-82
2023/04/14 05:57:57;;;;;;;7.80;6.07;;;14.50;99.90;;;;;;5035642;28;20205;-83
2023/04/14 06:00:24;;;;;;;11.20;7.20;;;14.60;99.90;;;;;;5051601;28;20395;-81
2023/04/14 06:02:50;;;;;;;12.60;7.47;;;14.70;99.90;;;;;;5050158;28;20427;-81
2023/04/14 06:05:16;;;;;;;10.67;6.60;;;14.80;99.90;;;;;;5046598;28;21163;-82
2023/04/14 06:07:42;;;;;;;8.83;6.63;;;14.90;99.90;;;;;;5030083;28;20451;-81
2023/04/14 06:10:09;;;;;;;8.60;5.50;;;15.00;99.90;;;;;;5025386;28;20423;-82
2023/04/14 06:12:36;;;;;;;6.93;5.33;;;15.00;99.90;;;;;;5027955;28;20212;-81
2023/04/14 06:15:05;;;;;;;8.50;6.30;;;15.00;99.90;;;;;;5026032;28;20435;-81
2023/04/14 06:17:34;;;;;;;8.00;5.27;;;15.20;99.90;;;;;;5032911;28;20516;-82
2023/04/14 06:20:01;;;;;;;8.73;7.83;;;15.20;99.90;;;;;;5029161;28;20403;-81
2023/04/14 06:22:28;;;;;;;9.50;7.10;;;15.20;99.90;;;;;;5052346;28;20497;-82
2023/04/14 06:24:57;;;;;;;8.90;7.20;;;15.20;99.90;;;;;;5033742;28;21049;-81
2023/04/14 06:27:23;;;;;;;7.60;5.80;;;15.20;99.90;;;;;;5050242;28;20476;-81
2023/04/14 06:29:50;;;;;;;12.03;8.17;;;15.10;99.90;;;;;;5034253;28;20437;-82
2023/04/14 06:32:19;;;;;;;10.60;8.03;;;15.10;99.90;;;;;;5048202;28;20450;-81
2023/04/14 06:34:47;;;;;;;10.50;7.80;;;15.10;99.90;;;;;;5026781;28;20518;-81
2023/04/14 06:37:13;;;;;;;10.50;8.23;;;15.10;99.90;;;;;;5050293;28;20541;-83
2023/04/14 06:39:39;;;;;;;10.10;8.60;;;15.10;99.90;;;;;;5037437;28;20878;-80
2023/04/14 06:42:05;;;;;;;10.20;7.10;;;15.10;99.90;;;;;;5047703;28;20473;-82
2023/04/14 06:44:31;;;;;;;12.30;7.90;;;15.10;99.90;;;;;;5047287;28;20466;-82
2023/04/14 06:46:57;;;;;;;13.93;8.60;;;15.10;99.90;;;;;;5041643;28;20256;-82
2023/04/14 06:49:23;;;;;;;9.90;8.50;;;15.20;99.90;;;;;;5041728;28;20813;-82
2023/04/14 06:51:49;;;;;;;15.13;8.63;;;15.30;99.90;;;;;;5047264;28;20252;-81
2023/04/14 06:54:15;;;;;;;13.70;8.43;;;15.30;99.90;;;;;;5050041;28;20430;-82
2023/04/14 06:56:41;;;;;;;9.90;8.90;;;15.40;99.90;;;;;;5055398;28;20938;-81
2023/04/14 06:59:06;;;;;;;12.47;9.40;;;15.40;99.90;;;;;;5055233;28;20450;-81
2023/04/14 07:01:32;;;;;;;14.87;9.47;;;15.40;99.90;;;;;;5052238;28;20202;-81
2023/04/14 07:03:58;;;;;;;12.53;9.43;;;15.40;99.90;;;;;;5032448;28;20182;-81
2023/04/14 07:06:24;;;;;;;12.00;9.60;;;15.30;99.90;;;;;;5017954;28;20517;-82
2023/04/14 07:08:49;;;;;;;22.83;16.23;;;15.20;99.90;;;;;;5036658;28;20265;-81
2023/04/14 07:11:15;;;;;;;11.73;10.00;;;15.20;99.90;;;;;;5035105;28;20171;-81
2023/04/14 07:13:41;;;;;;;27.67;16.20;;;15.10;99.90;;;;;;5018725;28;20214;-81
2023/04/14 07:16:07;;;;;;;12.67;10.60;;;15.10;99.90;;;;;;5036438;28;20671;-81
2023/04/14 07:18:34;;;;;;;11.53;9.50;;;15.10;99.90;;;;;;5016239;28;20194;-81
2023/04/14 07:21:00;;;;;;;16.90;10.90;;;15.10;99.90;;;;;;5025128;28;20426;-81
2023/04/14 07:23:26;;;;;;;14.23;10.40;;;15.10;99.90;;;;;;5030134;28;20522;-82
2023/04/14 07:25:55;;;;;;;11.07;9.53;;;15.10;99.90;;;;;;5043408;28;20477;-82
2023/04/14 07:28:22;;;;;;;12.53;11.23;;;15.10;99.90;;;;;;5044022;28;20825;-80
2023/04/14 07:30:48;;;;;;;13.27;10.50;;;15.20;99.90;;;;;;5052070;28;20843;-82
2023/04/14 07:33:17;;;;;;;12.20;10.00;;;15.20;99.90;;;;;;5052205;28;20862;-81
2023/04/14 07:35:49;;;;;;;13.83;10.70;;;15.30;99.90;;;;;;5053268;28;20416;-82
2023/04/14 07:38:16;;;;;;;13.07;9.23;;;15.30;99.90;;;;;;5054607;28;20537;-82
2023/04/14 07:40:41;;;;;;;15.30;10.40;;;15.30;99.90;;;;;;5055506;28;20461;-82
2023/04/14 07:43:07;;;;;;;11.87;9.70;;;15.40;99.90;;;;;;5055297;28;20462;-82
2023/04/14 07:45:32;;;;;;;11.73;9.10;;;15.40;99.90;;;;;;5053794;28;20626;-80
2023/04/14 07:47:58;;;;;;;13.03;10.50;;;15.40;99.90;;;;;;5053217;28;20212;-80
2023/04/14 07:50:25;;;;;;;9.27;8.30;;;15.40;99.90;;;;;;5052419;28;20174;-81
2023/04/14 07:52:51;;;;;;;11.50;8.20;;;15.50;99.90;;;;;;5038010;28;20505;-80
2023/04/14 07:55:17;;;;;;;11.80;10.30;;;15.50;99.90;;;;;;5030401;28;20408;-81
2023/04/14 07:57:42;;;;;;;11.20;9.47;;;15.40;99.90;;;;;;5041069;28;21033;-80
2023/04/14 08:00:08;;;;;;;12.20;9.60;;;15.40;99.90;;;;;;5048940;28;20181;-82
2023/04/14 08:02:34;;;;;;;11.00;9.83;;;15.40;99.90;;;;;;5029743;28;20213;-79
2023/04/14 08:05:00;;;;;;;11.93;9.10;;;15.30;99.90;;;;;;5034635;28;20463;-80
2023/04/14 08:07:27;;;;;;;11.60;8.77;;;15.30;99.90;;;;;;5049850;28;20471;-82
2023/04/14 08:09:53;;;;;;;13.00;11.10;;;15.20;99.90;;;;;;5026424;28;20438;-79
2023/04/14 08:12:19;;;;;;;13.53;9.67;;;15.20;99.90;;;;;;5047601;28;20588;-79
2023/04/14 08:14:46;;;;;;;12.13;9.57;;;15.20;99.90;;;;;;5052123;28;20893;-79
2023/04/14 08:17:12;;;;;;;14.40;9.70;;;15.10;99.90;;;;;;5052794;28;20469;-82
2023/04/14 08:19:38;;;;;;;12.80;9.70;;;15.20;99.90;;;;;;5053311;28;20407;-80
2023/04/14 08:22:04;;;;;;;20.00;10.80;;;15.20;99.90;;;;;;5051820;28;20812;-82
2023/04/14 08:24:29;;;;;;;12.33;10.40;;;15.20;99.90;;;;;;5042094;28;20214;-80
2023/04/14 08:26:56;;;;;;;13.13;10.77;;;15.20;99.90;;;;;;5032109;28;20205;-79
2023/04/14 08:29:22;;;;;;;15.30;10.23;;;15.10;99.90;;;;;;5034017;28;20193;-81
2023/04/14 08:31:48;;;;;;;11.90;10.03;;;15.00;99.90;;;;;;5034894;28;20988;-82
2023/04/14 08:34:14;;;;;;;14.50;11.63;;;15.00;99.90;;;;;;5034900;28;20431;-80
2023/04/14 08:36:40;;;;;;;12.23;10.87;;;15.00;99.90;;;;;;5034389;28;20297;-80
2023/04/14 08:39:06;;;;;;;16.03;12.27;;;15.10;99.90;;;;;;5055025;28;20438;-80
2023/04/14 08:41:37;;;;;;;16.13;11.90;;;15.10;99.90;;;;;;5054535;28;20308;-82
2023/04/14 08:44:03;;;;;;;18.20;12.47;;;15.10;99.90;;;;;;5055133;28;20236;-83
2023/04/14 08:46:30;;;;;;;13.40;10.30;;;15.20;99.90;;;;;;5052971;28;20931;-80
2023/04/14 08:49:07;;;;;;;13.30;11.90;;;15.10;99.90;;;;;;5036913;28;20196;-80
2023/04/14 08:51:41;;;;;;;12.30;11.10;;;15.10;99.90;;;;;;5054354;28;20438;-82
2023/04/14 08:54:11;;;;;;;13.83;12.53;;;15.00;99.90;;;;;;5041107;28;20465;-80
2023/04/14 08:56:41;;;;;;;17.60;11.90;;;15.00;99.90;;;;;;5034353;28;20466;-82
2023/04/14 08:59:10;;;;;;;15.30;11.90;;;15.00;99.90;;;;;;5032179;28;20550;-82
2023/04/14 09:01:37;;;;;;;12.47;10.83;;;15.00;99.90;;;;;;5032239;28;20462;-79
2023/04/14 09:04:04;;;;;;;13.03;11.50;;;14.90;99.90;;;;;;5049000;28;20477;-83
2023/04/14 09:06:31;;;;;;;15.93;11.90;;;14.70;99.90;;;;;;5049198;28;20439;-82
2023/04/14 09:09:09;;;;;;;15.50;12.90;;;14.60;99.90;;;;;;5051757;28;20427;-80
2023/04/14 09:11:36;;;;;;;15.90;12.83;;;14.60;99.90;;;;;;5042660;28;20477;-80
2023/04/14 09:14:03;;;;;;;16.23;12.60;;;14.60;99.90;;;;;;5028973;28;20463;-82
2023/04/14 09:16:29;;;;;;;15.03;13.43;;;14.50;99.90;;;;;;5028778;28;20439;-82
2023/04/14 09:18:56;;;;;;;15.30;13.50;;;14.40;99.90;;;;;;5030410;28;20447;-81
2023/04/14 09:21:23;;;;;;;17.07;13.57;;;14.40;99.90;;;;;;5048837;28;20414;-80
2023/04/14 09:23:49;;;;;;;17.63;14.27;;;14.30;99.90;;;;;;5030689;28;20447;-85
2023/04/14 09:26:15;;;;;;;18.80;15.80;;;14.20;99.90;;;;;;5051581;28;20504;-80
2023/04/14 09:28:41;;;;;;;16.57;12.10;;;14.20;99.90;;;;;;5052981;28;20443;-82
2023/04/14 09:31:08;;;;;;;17.50;14.47;;;14.20;99.90;;;;;;5054011;28;20439;-81
2023/04/14 09:33:42;;;;;;;16.63;13.57;;;14.20;99.90;;;;;;5036156;28;20204;-81
2023/04/14 09:36:19;;;;;;;14.10;10.10;;;14.30;99.90;;;;;;5052879;28;20430;-80
2023/04/14 09:38:45;;;;;;;14.53;11.30;;;14.00;99.90;;;;;;5015395;28;20439;-83
2023/04/14 09:41:16;;;;;;;18.67;11.77;;;13.80;99.90;;;;;;5014509;28;20964;-81
2023/04/14 09:43:42;;;;;;;14.90;11.80;;;13.70;99.90;;;;;;5034191;28;20561;-82
2023/04/14 09:46:08;;;;;;;25.10;19.60;;;13.50;99.90;;;;;;5017040;28;20550;-82
2023/04/14 09:48:48;;;;;;;16.60;14.10;;;13.40;99.90;;;;;;5041285;28;20443;-80
2023/04/14 09:51:13;;;;;;;19.50;16.13;;;13.40;99.90;;;;;;5042918;28;20692;-83
2023/04/14 09:53:40;;;;;;;16.77;15.00;;;13.50;99.90;;;;;;5041736;28;20783;-81
2023/04/14 09:56:07;;;;;;;14.17;12.37;;;13.50;99.90;;;;;;5049463;28;20181;-82
2023/04/14 09:58:38;;;;;;;15.47;13.20;;;13.40;99.90;;;;;;5023256;28;20467;-81
2023/04/14 10:01:09;;;;;;;15.27;13.67;;;13.30;99.90;;;;;;5013351;28;20418;-83
2023/04/14 10:03:40;;;;;;;16.77;14.83;;;13.30;99.90;;;;;;5021682;28;20803;-83
2023/04/14 10:06:16;;;;;;;16.97;14.40;;;13.20;99.90;;;;;;5034413;28;20505;-80
2023/04/14 10:08:45;;;;;;;21.70;16.90;;;13.30;99.90;;;;;;5032586;28;20533;-81
2023/04/14 10:11:16;;;;;;;15.50;12.30;;;13.30;99.90;;;;;;5033216;28;20939;-83
2023/04/14 10:13:47;;;;;;;17.37;14.47;;;13.10;99.90;;;;;;5027909;28;20435;-80
2023/04/14 10:16:13;;;;;;;15.67;13.97;;;13.10;99.90;;;;;;5042302;28;20462;-81
2023/04/14 10:18:39;;;;;;;18.37;15.10;;;13.10;99.90;;;;;;5036265;28;21634;-84
2023/04/14 10:21:06;;;;;;;16.67;14.50;;;13.00;99.90;;;;;;5038087;28;20521;-83
2023/04/14 10:23:34;;;;;;;17.87;14.80;;;13.00;99.90;;;;;;5029865;28;20217;-80
2023/04/14 10:26:02;;;;;;;14.20;12.13;;;12.90;99.90;;;;;;5030270;28;20537;-80
2023/04/14 10:28:29;;;;;;;13.27;11.90;;;12.80;99.90;;;;;;5048808;28;20469;-80
2023/04/14 10:30:56;;;;;;;15.93;14.43;;;12.50;99.90;;;;;;5051637;28;20927;-84
2023/04/14 10:33:22;;;;;;;16.70;15.00;;;12.40;99.90;;;;;;5034084;28;20892;-81
2023/04/14 10:35:55;;;;;;;14.30;11.07;;;12.40;99.90;;;;;;5050886;28;20915;-80
2023/04/14 10:38:21;;;;;;;17.45;15.60;;;12.40;99.90;;;;;;5031487;28;20443;-81
2023/04/14 10:40:51;;;;;;;14.83;13.33;;;12.40;99.90;;;;;;5012762;28;20686;-83
2023/04/14 10:43:17;;;;;;;11.70;10.60;;;12.30;99.90;;;;;;5014180;28;20235;-80
2023/04/14 10:45:57;;;;;;;13.07;11.77;;;12.30;99.90;;;;;;5033208;28;20466;-80
2023/04/14 10:48:31;;;;;;;11.80;10.47;;;12.30;99.90;;;;;;5017603;28;20459;-80
2023/04/14 10:51:08;;;;;;;14.23;11.80;;;12.30;99.90;;;;;;5018663;28;20481;-80
2023/04/14 10:53:46;;;;;;;13.40;12.00;;;12.30;99.90;;;;;;5014609;28;20476;-81
2023/04/14 10:56:12;;;;;;;19.35;15.77;;;12.40;99.90;;;;;;5031774;28;20463;-84
2023/04/14 10:58:38;;;;;;;13.65;12.18;;;12.40;99.90;;;;;;5051596;28;20231;-83
2023/04/14 11:01:24;;;;;;;10.90;9.40;;;12.50;99.90;;;;;;5033367;28;20186;-82
2023/04/14 11:03:51;;;;;;;9.98;8.40;;;12.60;99.90;;;;;;5051824;28;20517;-81
2023/04/14 11:06:44;;;;;;;10.30;8.85;;;12.60;99.90;;;;;;5051908;28;20289;-80
2023/04/14 11:09:35;;;;;;;23.37;16.17;;;12.70;99.90;;;;;;5042821;28;20178;-81
2023/04/14 11:12:26;;;;;;;31.00;22.60;;;12.70;99.90;;;;;;5036274;28;20446;-81
2023/04/14 11:15:00;;;;;;;8.63;7.73;;;12.70;99.90;;;;;;5026435;28;20788;-82
2023/04/14 11:17:29;;;;;;;6.95;6.35;;;12.70;99.90;;;;;;5035117;28;20469;-80
2023/04/14 11:19:56;;;;;;;8.27;6.67;;;12.60;99.90;;;;;;5026087;28;20598;-80
2023/04/14 11:22:45;;;;;;;8.07;6.03;;;12.60;99.90;;;;;;5049373;28;20515;-80
2023/04/14 11:25:13;;;;;;;5.65;4.75;;;12.60;99.90;;;;;;5034930;28;20508;-80
2023/04/14 11:27:38;;;;;;;5.60;5.10;;;12.50;99.90;;;;;;5052336;28;20264;-83
2023/04/14 11:30:13;;;;;;;7.73;7.13;;;12.40;99.90;;;;;;5035922;28;20430;-80
2023/04/14 11:32:52;;;;;;;7.57;6.20;;;12.50;99.90;;;;;;5035049;28;20266;-80
2023/04/14 11:35:19;;;;;;;8.30;6.20;;;12.60;99.90;;;;;;5034833;28;20521;-80
2023/04/14 11:37:45;;;;;;;5.70;5.13;;;12.70;99.90;;;;;;5033536;28;20443;-85
2023/04/14 11:40:12;;;;;;;10.20;5.73;;;12.70;99.90;;;;;;5029469;28;20514;-80
2023/04/14 11:42:43;;;;;;;8.07;6.70;;;12.70;99.90;;;;;;5033458;28;20446;-80
2023/04/14 11:45:09;;;;;;;7.70;6.33;;;12.70;99.90;;;;;;5031026;28;20683;-80
2023/04/14 11:47:35;;;;;;;7.40;6.70;;;12.70;99.90;;;;;;5030298;28;20463;-81
2023/04/14 11:50:03;;;;;;;7.97;7.17;;;12.60;99.90;;;;;;5030479;28;20420;-80
2023/04/14 11:52:32;;;;;;;8.47;7.40;;;12.60;99.90;;;;;;5029288;28;20452;-80
2023/04/14 11:54:57;;;;;;;7.10;6.40;;;12.50;99.90;;;;;;5028657;28;20424;-80
2023/04/14 11:57:24;;;;;;;6.80;6.20;;;12.40;99.90;;;;;;5029222;28;20493;-82
2023/04/14 11:59:50;;;;;;;5.30;4.78;;;12.30;99.90;;;;;;5032198;28;20167;-81
2023/04/14 12:02:20;;;;;;;5.67;5.17;;;12.40;99.90;;;;;;5031624;28;20689;-80
2023/04/14 12:04:49;;;;;;;5.47;4.47;;;12.40;99.90;;;;;;5032279;28;20466;-81
2023/04/14 12:07:16;;;;;;;4.30;3.93;;;12.30;99.90;;;;;;5031861;28;20431;-81
2023/04/14 12:09:47;;;;;;;4.65;4.25;;;12.20;99.90;;;;;;5016570;28;20811;-85
2023/04/14 12:12:15;;;;;;;4.30;3.88;;;12.00;99.90;;;;;;5008294;28;20248;-83
2023/04/14 12:14:46;;;;;;;3.43;2.40;;;11.90;99.90;;;;;;5009339;28;20171;-81
2023/04/14 12:17:14;;;;;;;5.35;4.85;;;11.80;99.90;;;;;;5010191;28;20850;-80
2023/04/14 12:19:41;;;;;;;22.35;15.60;;;11.70;99.90;;;;;;5017330;28;20439;-83
2023/04/14 12:22:08;;;;;;;7.32;6.65;;;11.70;99.90;;;;;;5030138;28;20202;-83
2023/04/14 12:24:33;;;;;;;9.73;8.25;;;11.50;99.90;;;;;;5030662;28;20217;-83
2023/04/14 12:26:59;;;;;;;6.20;5.60;;;11.50;99.90;;;;;;5031442;28;20194;-81
2023/04/14 12:29:25;;;;;;;6.07;4.77;;;11.40;99.90;;;;;;5030740;28;20189;-81
2023/04/14 12:31:52;;;;;;;4.10;3.70;;;11.40;99.90;;;;;;5029607;28;20192;-80
2023/04/14 12:34:24;;;;;;;4.88;3.75;;;11.30;99.90;;;;;;5028422;28;20190;-81
2023/04/14 12:36:51;;;;;;;4.05;3.75;;;11.30;99.90;;;;;;5023364;28;20233;-84
2023/04/14 12:39:17;;;;;;;5.70;3.70;;;11.40;99.90;;;;;;5020345;28;20178;-80
2023/04/14 12:41:43;;;;;;;5.13;4.63;;;11.20;99.90;;;;;;5032893;28;20222;-84
2023/04/14 12:44:16;;;;;;;3.60;3.30;;;11.30;99.90;;;;;;5032476;28;20182;-85
2023/04/14 12:46:49;;;;;;;3.42;2.92;;;11.20;99.90;;;;;;5031963;28;20920;-83